Date,TemperatureHighF,TemperatureAvgF,TemperatureLowF,DewpointHighF,DewpointAvgF,DewpointLowF,HumidityHigh,HumidityAvg,HumidityLow,PressureMaxIn,PressureMinIn,WindSpeedMaxMPH,WindSpeedAvgMPH,GustSpeedMaxMPH,PrecipitationSumIn
2013-1-1,42,39,30,32,29,18,77,68,56,29.93,29.75,15,6,0,0.00
2013-1-2,34,29,25,19,16,14,70,61,52,30.09,29.89,19,5,0,0.00
2013-1-3,35,29,25,22,19,18,77,66,53,30.10,29.99,13,3,0,0.00
2013-1-4,38,34,29,25,24,22,77,67,57,30.02,29.88,21,7,0,0.00
2013-1-5,43,35,31,30,24,21,83,64,50,30.21,29.95,14,4,0,0.00
2013-1-6,47,39,33,36,32,26,96,76,57,30.14,29.90,10,3,0,0.05
2013-1-7,47,39,31,33,29,25,80,67,45,30.31,29.98,15,4,0,0.00
2013-1-8,51,40,28,35,32,25,91,74,56,30.35,30.25,15,3,0,0.00
2013-1-9,53,44,32,43,37,31,97,78,59,30.30,30.05,12,3,0,0.00
2013-1-10,50,44,37,35,29,27,77,57,42,30.44,30.16,14,4,0,0.00
2013-1-11,48,44,36,47,39,31,98,85,71,30.43,29.98,5,1,0,0.62
2013-1-12,48,46,45,47,46,45,99,98,96,30.08,29.96,9,2,0,0.00
2013-1-13,52,48,42,51,47,42,99,97,89,30.06,29.91,14,2,0,0.01
2013-1-14,59,53,41,56,48,32,99,84,52,30.18,29.85,13,4,0,0.05
2013-1-15,40,39,37,39,34,30,95,81,70,30.24,30.10,10,3,0,0.26
2013-1-16,41,37,35,40,36,34,98,97,91,30.10,29.69,11,4,0,0.89
2013-1-17,44,40,38,37,34,30,95,79,63,30.00,29.84,8,3,0,0.00
2013-1-18,38,31,26,33,18,9,81,59,39,30.41,29.90,17,5,0,0.00
2013-1-19,53,39,27,31,25,15,74,58,41,30.33,29.87,17,7,0,0.00
2013-1-20,55,45,33,34,27,14,69,51,26,29.95,29.62,23,9,0,0.00
2013-1-21,33,30,27,29,18,12,93,63,45,30.01,29.75,11,2,0,0.00
2013-1-22,26,20,15,20,4,-2,75,49,37,30.13,29.75,22,10,0,0.00
2013-1-23,20,16,11,17,3,-2,94,58,42,30.18,30.09,15,5,0,0.00
2013-1-24,25,18,11,9,4,-3,86,57,30,30.32,30.03,20,6,0,0.00
2013-1-25,25,18,13,18,8,0,91,65,46,30.34,29.98,13,4,0,0.00
2013-1-26,29,21,14,14,12,9,92,69,45,30.29,29.96,13,5,0,0.00
2013-1-27,35,26,17,22,14,10,82,61,45,30.45,30.29,13,4,0,0.00
2013-1-28,27,25,22,21,18,16,84,76,71,30.41,30.32,4,1,0,0.00
2013-1-29,55,44,36,47,42,35,97,91,67,30.04,29.92,7,2,0,0.00
2013-1-30,65,56,46,60,54,46,99,92,79,29.97,29.29,25,5,0,0.02
2013-1-31,62,46,30,60,34,14,97,64,40,29.73,29.02,33,13,0,0.54